Time;durP1;ratioP1;P1;durP2;ratioP2;P2;SDS_P1;SDS_P2;PMS_P1;PMS_P2;Temp;Humidity;BMP_temperature;BMP_pressure;BME280_temperature;BME280_humidity;BME280_pressure;Samples;Min_cycle;Max_cycle;Signal;HPM_P1;HPM_P2
2023/04/15 00:00:29;;;;;;;93.18;51.92;;;15.40;69.40;;;;;;4961799;28;89754;-66
2023/04/15 00:02:55;;;;;;;93.95;52.30;;;15.30;69.40;;;;;;4967387;28;88595;-63
2023/04/15 00:05:21;;;;;;;93.97;51.92;;;15.40;69.50;;;;;;4961684;28;91781;-62
2023/04/15 00:07:46;;;;;;;93.85;52.17;;;15.40;69.40;;;;;;4968032;28;89727;-65
2023/04/15 00:10:13;;;;;;;93.75;52.20;;;15.40;69.50;;;;;;4963989;28;89746;-63
2023/04/15 00:12:40;;;;;;;93.63;51.72;;;15.40;69.50;;;;;;4960599;28;89150;-61
2023/04/15 00:15:08;;;;;;;93.68;51.95;;;15.30;69.40;;;;;;4962748;28;90428;-66
2023/04/15 00:17:34;;;;;;;93.32;52.00;;;15.40;69.50;;;;;;4964791;28;90182;-67
2023/04/15 00:19:59;;;;;;;93.65;52.13;;;15.40;69.50;;;;;;4961517;28;89644;-67
2023/04/15 00:22:28;;;;;;;93.32;52.08;;;15.30;69.40;;;;;;4965922;28;89445;-68
2023/04/15 00:24:54;;;;;;;93.63;52.15;;;15.40;69.50;;;;;;4963463;28;89643;-66
2023/04/15 00:27:19;;;;;;;93.75;51.95;;;15.30;69.50;;;;;;4965569;28;89412;-66
2023/04/15 00:29:45;;;;;;;94.43;52.22;;;15.30;69.50;;;;;;4961538;28;89265;-67
2023/04/15 00:32:11;;;;;;;93.63;51.97;;;15.30;69.50;;;;;;4963981;28;89096;-62
2023/04/15 00:34:37;;;;;;;94.38;51.95;;;15.30;69.50;;;;;;4968411;28;90774;-65
2023/04/15 00:37:02;;;;;;;93.30;51.65;;;15.30;69.50;;;;;;4964953;28;90205;-65
2023/04/15 00:39:28;;;;;;;93.60;52.17;;;15.30;69.50;;;;;;4995390;27;90442;-67
2023/04/15 00:41:54;;;;;;;93.57;52.13;;;15.30;69.60;;;;;;4963966;28;90626;-58
2023/04/15 00:44:20;;;;;;;93.88;52.47;;;15.30;69.50;;;;;;4959803;28;89615;-67
2023/04/15 00:46:47;;;;;;;93.53;52.08;;;15.30;69.60;;;;;;4964018;28;89627;-66
2023/04/15 00:49:13;;;;;;;93.15;51.95;;;15.30;69.60;;;;;;4970544;28;88959;-65
2023/04/15 00:51:39;;;;;;;93.90;52.53;;;15.30;69.60;;;;;;4962653;28;88219;-66
2023/04/15 00:54:06;;;;;;;93.13;51.88;;;15.20;69.50;;;;;;4960129;28;89395;-67
2023/04/15 00:56:37;;;;;;;93.40;51.95;;;15.30;69.60;;;;;;4967808;28;90027;-65
2023/04/15 00:59:06;;;;;;;93.68;52.08;;;15.30;69.60;;;;;;4962597;28;90391;-67
2023/04/15 01:01:34;;;;;;;93.20;52.28;;;15.30;69.60;;;;;;4966424;28;90348;-57
2023/04/15 01:04:00;;;;;;;93.47;52.15;;;15.20;69.60;;;;;;4965082;28;89783;-63
2023/04/15 01:06:27;;;;;;;94.15;52.08;;;15.20;69.60;;;;;;4958819;28;90628;-46
2023/04/15 01:08:53;;;;;;;93.75;52.10;;;15.20;69.50;;;;;;4953582;28;90180;-50
2023/04/15 01:11:19;;;;;;;93.18;51.75;;;15.20;69.50;;;;;;4961656;28;90048;-52
2023/04/15 01:13:46;;;;;;;93.75;51.90;;;15.20;69.60;;;;;;4957331;28;89649;-48
2023/04/15 01:16:12;;;;;;;93.13;51.92;;;15.20;69.60;;;;;;4960230;28;89670;-45
2023/04/15 01:18:38;;;;;;;93.63;51.90;;;15.20;69.60;;;;;;4959554;28;89875;-50
2023/04/15 01:21:05;;;;;;;93.93;52.03;;;15.20;69.60;;;;;;4963741;28;90362;-49
2023/04/15 01:23:35;;;;;;;94.60;52.25;;;15.20;69.60;;;;;;4959547;28;91134;-46
2023/04/15 01:26:02;;;;;;;93.22;51.83;;;15.20;69.60;;;;;;4959750;28;91841;-49
2023/04/15 01:28:28;;;;;;;93.40;51.88;;;15.20;69.60;;;;;;4960636;28;89481;-46
2023/04/15 01:31:08;;;;;;;94.65;52.10;;;15.20;69.60;;;;;;4969319;28;89781;-49
2023/04/15 01:33:33;;;;;;;93.43;51.95;;;15.20;69.60;;;;;;4961739;28;90004;-44
2023/04/15 01:36:00;;;;;;;92.82;51.80;;;15.20;69.70;;;;;;4965748;28;91030;-45
2023/04/15 01:38:26;;;;;;;93.35;51.95;;;15.20;69.70;;;;;;4963623;28;89739;-50
2023/04/15 01:40:52;;;;;;;92.60;51.67;;;15.20;69.70;;;;;;4964101;28;88779;-46
2023/04/15 01:43:18;;;;;;;93.13;51.90;;;15.20;69.70;;;;;;4964814;28;90147;-47
2023/04/15 01:45:44;;;;;;;92.68;51.70;;;15.20;69.70;;;;;;4958671;28;90068;-47
2023/04/15 01:48:11;;;;;;;93.85;52.13;;;15.20;69.70;;;;;;4955081;28;91137;-45
2023/04/15 01:50:37;;;;;;;92.78;51.88;;;15.10;69.70;;;;;;4951027;28;89820;-49
2023/04/15 01:53:03;;;;;;;93.47;52.17;;;15.10;69.60;;;;;;4957704;28;89615;-48
2023/04/15 01:55:29;;;;;;;93.20;51.95;;;15.10;69.70;;;;;;4956624;28;90527;-46
2023/04/15 01:57:55;;;;;;;92.88;51.88;;;15.10;69.70;;;;;;4959851;28;89599;-47
2023/04/15 02:00:21;;;;;;;93.07;51.85;;;15.10;69.70;;;;;;4954472;28;91379;-47
2023/04/15 02:02:48;;;;;;;93.10;51.92;;;15.10;69.70;;;;;;4958711;28;90194;-47
2023/04/15 02:05:14;;;;;;;92.45;51.72;;;15.10;69.70;;;;;;4956183;28;89062;-45
2023/04/15 02:07:44;;;;;;;93.38;51.63;;;15.10;69.70;;;;;;4954477;28;89966;-48
2023/04/15 02:10:11;;;;;;;93.13;51.78;;;15.10;69.70;;;;;;4954363;28;89822;-49
2023/04/15 02:12:38;;;;;;;93.40;51.78;;;15.10;69.70;;;;;;4954904;28;93100;-49
2023/04/15 02:15:04;;;;;;;92.68;51.75;;;15.10;69.70;;;;;;4956585;28;89892;-48
2023/04/15 02:17:33;;;;;;;93.25;52.03;;;15.10;69.70;;;;;;4962136;28;89706;-48
2023/04/15 02:19:59;;;;;;;93.32;51.90;;;15.10;69.80;;;;;;4956467;28;89538;-49
2023/04/15 02:22:25;;;;;;;93.50;51.90;;;15.10;69.70;;;;;;4964338;28;91054;-46
2023/04/15 02:24:51;;;;;;;93.18;52.17;;;15.10;70.00;;;;;;4962037;28;90091;-46
2023/04/15 02:27:17;;;;;;;93.07;51.83;;;15.10;69.90;;;;;;4958831;28;90525;-48
2023/04/15 02:29:44;;;;;;;92.93;51.83;;;15.10;69.80;;;;;;4958335;28;89253;-49
2023/04/15 02:32:10;;;;;;;93.82;52.08;;;15.00;69.70;;;;;;4960664;28;89693;-49
2023/04/15 02:34:40;;;;;;;93.43;52.13;;;15.00;69.70;;;;;;4963463;28;90165;-52
2023/04/15 02:37:06;;;;;;;93.57;52.08;;;15.10;69.80;;;;;;4964040;28;90976;-47
2023/04/15 02:39:32;;;;;;;93.00;51.80;;;15.00;70.50;;;;;;4957935;28;90505;-46
2023/04/15 02:41:59;;;;;;;93.82;51.88;;;15.00;69.80;;;;;;4956115;28;94620;-48
2023/04/15 02:44:26;;;;;;;93.03;51.78;;;15.00;69.80;;;;;;4958932;28;95605;-47
2023/04/15 02:46:53;;;;;;;93.45;52.05;;;15.00;69.80;;;;;;4956934;28;89377;-49
2023/04/15 02:49:19;;;;;;;93.18;52.75;;;15.00;69.80;;;;;;4956230;28;90854;-49
2023/04/15 02:51:48;;;;;;;92.65;51.85;;;15.00;69.80;;;;;;4958240;28;90025;-47
2023/04/15 02:54:15;;;;;;;93.07;51.97;;;15.00;69.80;;;;;;4957114;28;89502;-49
2023/04/15 02:56:41;;;;;;;93.60;52.10;;;15.00;69.80;;;;;;4955093;28;89677;-48
2023/04/15 02:59:07;;;;;;;92.90;51.78;;;15.00;69.90;;;;;;4950160;28;91275;-47
2023/04/15 03:01:33;;;;;;;93.80;51.83;;;15.00;69.90;;;;;;4953043;28;95157;-46
2023/04/15 03:03:58;;;;;;;93.45;51.72;;;15.00;69.90;;;;;;4957954;28;90030;-46
2023/04/15 03:06:24;;;;;;;94.18;51.85;;;15.00;69.90;;;;;;4957194;28;89904;-51
2023/04/15 03:08:50;;;;;;;93.60;52.05;;;15.00;69.90;;;;;;4954003;28;89633;-46
2023/04/15 03:11:16;;;;;;;93.20;51.95;;;15.00;69.90;;;;;;4957856;28;91607;-47
2023/04/15 03:13:42;;;;;;;92.72;51.92;;;15.00;69.90;;;;;;4958987;28;90259;-49
2023/04/15 03:16:08;;;;;;;93.00;51.80;;;15.00;70.60;;;;;;4965094;28;89814;-47
2023/04/15 03:18:34;;;;;;;91.85;51.22;;;15.00;69.90;;;;;;4993335;28;89246;-51
2023/04/15 03:21:00;;;;;;;92.88;51.78;;;14.90;69.90;;;;;;4961580;28;92146;-48
2023/04/15 03:23:26;;;;;;;92.15;51.58;;;14.90;70.00;;;;;;4959899;27;90460;-47
2023/04/15 03:25:54;;;;;;;92.50;51.72;;;15.00;69.90;;;;;;4962420;28;90533;-45
2023/04/15 03:28:20;;;;;;;92.85;51.95;;;14.90;69.90;;;;;;4961695;28;90049;-46
2023/04/15 03:30:46;;;;;;;92.55;51.60;;;14.90;70.00;;;;;;4956062;28;89654;-45
2023/04/15 03:33:11;;;;;;;93.30;51.95;;;14.90;70.00;;;;;;4958787;28;90582;-47
2023/04/15 03:35:37;;;;;;;92.88;51.95;;;14.90;70.00;;;;;;4958080;28;90521;-50
2023/04/15 03:38:03;;;;;;;92.03;51.53;;;14.90;70.00;;;;;;4966955;28;90059;-47
2023/04/15 03:40:28;;;;;;;92.53;51.70;;;14.90;69.90;;;;;;4968446;28;90197;-50
2023/04/15 03:42:54;;;;;;;92.90;51.88;;;14.90;70.00;;;;;;4959937;28;89649;-46
2023/04/15 03:45:20;;;;;;;92.63;51.67;;;14.90;70.00;;;;;;4963104;28;90327;-48
2023/04/15 03:47:46;;;;;;;93.30;52.20;;;14.90;70.00;;;;;;4962543;28;92501;-48
2023/04/15 03:50:11;;;;;;;92.50;51.75;;;14.90;69.90;;;;;;4966203;28;90990;-53
2023/04/15 03:52:37;;;;;;;91.72;51.67;;;14.90;70.10;;;;;;4961396;28;92806;-52
2023/04/15 03:55:03;;;;;;;92.70;51.95;;;14.90;70.00;;;;;;4962552;28;92817;-48
2023/04/15 03:57:29;;;;;;;92.72;51.80;;;14.90;70.00;;;;;;4961162;28;91302;-45
2023/04/15 03:59:54;;;;;;;92.47;51.85;;;14.90;70.00;;;;;;4966073;28;91065;-48
2023/04/15 04:02:21;;;;;;;92.97;51.78;;;14.80;70.60;;;;;;4960495;28;90033;-45
2023/04/15 04:04:47;;;;;;;92.15;51.72;;;14.90;70.00;;;;;;4969342;28;89409;-46
2023/04/15 04:07:16;;;;;;;92.45;51.83;;;14.90;70.10;;;;;;4966975;28;89433;-46
2023/04/15 04:09:42;;;;;;;92.60;51.85;;;14.80;70.00;;;;;;4956198;28;89648;-47
2023/04/15 04:12:08;;;;;;;92.07;51.60;;;14.80;70.00;;;;;;4954656;28;90383;-46
2023/04/15 04:14:34;;;;;;;92.97;51.85;;;14.80;70.00;;;;;;4965926;28;90662;-48
2023/04/15 04:16:59;;;;;;;93.25;51.90;;;14.80;70.00;;;;;;4962248;28;89321;-51
2023/04/15 04:19:25;;;;;;;92.80;51.83;;;14.80;70.10;;;;;;4966265;28;90422;-50
2023/04/15 04:21:51;;;;;;;92.05;51.60;;;14.80;70.20;;;;;;4960133;28;90046;-47
2023/04/15 04:24:17;;;;;;;92.40;51.88;;;14.80;70.10;;;;;;4963817;28;89499;-49
2023/04/15 04:26:43;;;;;;;93.25;51.92;;;14.80;70.10;;;;;;4961312;28;90017;-44
2023/04/15 04:29:08;;;;;;;92.78;51.85;;;14.80;70.10;;;;;;4963362;28;90273;-50
2023/04/15 04:31:34;;;;;;;92.25;51.80;;;14.80;70.10;;;;;;4961508;28;89526;-51
2023/04/15 04:34:00;;;;;;;92.25;51.80;;;14.80;70.10;;;;;;4962571;28;89844;-50
2023/04/15 04:36:25;;;;;;;92.45;51.72;;;14.80;70.00;;;;;;4960807;28;89906;-49
2023/04/15 04:38:51;;;;;;;91.93;51.45;;;14.80;70.20;;;;;;4958416;28;92449;-46
2023/04/15 04:41:17;;;;;;;93.07;51.80;;;14.80;70.20;;;;;;4958854;28;90343;-45
2023/04/15 04:43:42;;;;;;;92.60;51.95;;;14.80;70.20;;;;;;4960845;28;89564;-47
2023/04/15 04:46:09;;;;;;;92.38;51.78;;;14.80;70.20;;;;;;4960101;28;90352;-45
2023/04/15 04:48:35;;;;;;;92.10;51.83;;;14.70;70.20;;;;;;4957143;28;89920;-46
2023/04/15 04:51:01;;;;;;;92.97;51.78;;;14.80;70.30;;;;;;4957931;28;89854;-47
2023/04/15 04:53:27;;;;;;;92.47;51.95;;;14.80;70.30;;;;;;4957324;28;90275;-47
2023/04/15 04:55:52;;;;;;;92.55;51.75;;;14.70;70.40;;;;;;4965839;28;88792;-45
2023/04/15 04:58:18;;;;;;;93.63;51.78;;;14.70;70.40;;;;;;4956719;28;89779;-46
2023/04/15 05:00:44;;;;;;;94.45;51.80;;;14.70;70.50;;;;;;4958196;28;89894;-50
2023/04/15 05:03:09;;;;;;;92.85;51.97;;;14.70;70.70;;;;;;4958258;28;90635;-46
2023/04/15 05:05:38;;;;;;;92.97;51.90;;;14.70;70.70;;;;;;4958302;27;89688;-46
2023/04/15 05:08:04;;;;;;;94.25;51.83;;;14.70;70.70;;;;;;4963316;28;90202;-53
2023/04/15 05:10:30;;;;;;;91.80;51.53;;;14.70;70.60;;;;;;4957129;28;90105;-47
2023/04/15 05:12:56;;;;;;;93.25;52.05;;;14.70;70.70;;;;;;4958616;28;90832;-46
2023/04/15 05:15:22;;;;;;;95.40;51.42;;;14.70;70.70;;;;;;4961762;28;90259;-48
2023/04/15 05:17:47;;;;;;;96.45;52.13;;;14.70;70.70;;;;;;4955793;28;90248;-46
2023/04/15 05:20:13;;;;;;;92.38;51.75;;;14.70;70.70;;;;;;4963444;28;88868;-47
2023/04/15 05:22:39;;;;;;;92.70;51.90;;;14.70;70.70;;;;;;4961417;28;90292;-49
2023/04/15 05:25:05;;;;;;;94.43;51.85;;;14.70;70.80;;;;;;4963408;28;90189;-45
2023/04/15 05:27:30;;;;;;;94.60;52.08;;;14.70;70.90;;;;;;4956582;28;91398;-49
2023/04/15 05:29:56;;;;;;;92.13;51.75;;;14.70;71.00;;;;;;4959914;28;91293;-46
2023/04/15 05:32:22;;;;;;;91.68;51.42;;;14.70;70.80;;;;;;4958167;28;89944;-46
2023/04/15 05:34:47;;;;;;;93.35;51.67;;;14.70;70.90;;;;;;4959556;28;89541;-46
2023/04/15 05:37:13;;;;;;;93.05;51.95;;;14.70;71.00;;;;;;4959497;28;90773;-47
2023/04/15 05:39:39;;;;;;;91.85;51.58;;;14.70;70.90;;;;;;4957917;28;91156;-48
2023/04/15 05:42:05;;;;;;;93.65;52.42;;;14.70;71.00;;;;;;4954495;28;89982;-50
2023/04/15 05:44:31;;;;;;;92.70;51.92;;;14.70;71.00;;;;;;4961210;28;90948;-50
2023/04/15 05:46:56;;;;;;;94.43;51.90;;;14.60;70.90;;;;;;4959303;28;90389;-46
2023/04/15 05:49:22;;;;;;;91.85;51.75;;;14.70;71.00;;;;;;4957140;28;90346;-47
2023/04/15 05:51:48;;;;;;;93.78;52.17;;;14.60;70.90;;;;;;4961178;28;90748;-46
2023/04/15 05:54:14;;;;;;;92.28;51.92;;;14.70;71.10;;;;;;4961572;28;90187;-47
2023/04/15 05:56:40;;;;;;;94.82;52.15;;;14.60;71.00;;;;;;4965679;28;90005;-45
2023/04/15 05:59:06;;;;;;;93.53;52.10;;;14.60;70.90;;;;;;4965639;27;91976;-48
2023/04/15 06:01:33;;;;;;;92.97;52.05;;;14.60;71.10;;;;;;4962799;28;89235;-50
2023/04/15 06:03:59;;;;;;;94.07;51.58;;;14.70;71.10;;;;;;4962745;28;89591;-47
2023/04/15 06:06:26;;;;;;;92.25;51.85;;;14.60;71.10;;;;;;4959159;28;90179;-45
2023/04/15 06:08:52;;;;;;;94.38;52.00;;;14.60;71.10;;;;;;4959196;28;89899;-45
2023/04/15 06:11:20;;;;;;;92.32;52.05;;;14.70;71.20;;;;;;4961118;28;89823;-48
2023/04/15 06:13:45;;;;;;;92.32;51.90;;;14.60;71.20;;;;;;4962099;28;90441;-49
2023/04/15 06:16:11;;;;;;;93.00;52.33;;;14.60;71.10;;;;;;4960277;28;91079;-47
2023/04/15 06:18:37;;;;;;;93.22;52.40;;;14.60;71.10;;;;;;4974539;28;91536;-52
2023/04/15 06:21:03;;;;;;;93.43;52.42;;;14.60;71.20;;;;;;4961272;28;90051;-48
2023/04/15 06:23:29;;;;;;;92.50;51.92;;;14.70;71.30;;;;;;4962976;28;89980;-46
2023/04/15 06:25:55;;;;;;;92.82;52.00;;;14.60;71.20;;;;;;4966587;28;90329;-47
2023/04/15 06:28:20;;;;;;;93.03;52.35;;;14.60;71.30;;;;;;4965149;28;90497;-49
2023/04/15 06:30:46;;;;;;;93.13;52.13;;;14.60;71.20;;;;;;4961872;28;89858;-48
2023/04/15 06:33:12;;;;;;;92.65;52.03;;;14.60;71.20;;;;;;4963503;28;88657;-49
2023/04/15 06:35:38;;;;;;;92.45;51.75;;;14.60;71.20;;;;;;4962013;28;89897;-48
2023/04/15 06:38:04;;;;;;;92.60;52.20;;;14.60;71.30;;;;;;4967398;28;90156;-48
2023/04/15 06:40:30;;;;;;;93.07;51.90;;;14.60;71.20;;;;;;4956031;28;90515;-50
2023/04/15 06:42:56;;;;;;;94.35;52.38;;;14.60;71.20;;;;;;4959902;28;89464;-47
2023/04/15 06:45:21;;;;;;;92.28;52.05;;;14.60;71.40;;;;;;4954206;28;89710;-47
2023/04/15 06:47:47;;;;;;;92.82;52.10;;;14.60;71.30;;;;;;4958396;28;89958;-45
2023/04/15 06:50:13;;;;;;;92.18;51.90;;;14.60;71.30;;;;;;4961125;28;89889;-46
2023/04/15 06:52:39;;;;;;;93.28;52.25;;;14.60;71.30;;;;;;4961267;28;91261;-45
2023/04/15 06:55:06;;;;;;;93.15;52.28;;;14.60;71.40;;;;;;4961362;28;89638;-46
2023/04/15 06:57:32;;;;;;;93.03;51.90;;;14.60;71.50;;;;;;4965600;28;89968;-47
2023/04/15 06:59:58;;;;;;;93.05;52.50;;;14.60;71.20;;;;;;4958725;28;90027;-45
2023/04/15 07:02:23;;;;;;;92.97;52.00;;;14.60;71.30;;;;;;4964555;28;90431;-53
2023/04/15 07:04:49;;;;;;;93.10;52.08;;;14.60;71.40;;;;;;4957416;28;92114;-45
2023/04/15 07:07:16;;;;;;;93.25;52.50;;;14.60;71.50;;;;;;4957163;28;90168;-46
2023/04/15 07:09:42;;;;;;;92.25;51.95;;;14.60;71.50;;;;;;4960748;28;90449;-46
2023/04/15 07:12:08;;;;;;;93.60;52.75;;;14.60;71.50;;;;;;4958731;28;89661;-46
2023/04/15 07:14:33;;;;;;;92.85;52.10;;;14.60;71.40;;;;;;4955850;28;89393;-47
2023/04/15 07:16:59;;;;;;;93.18;52.35;;;14.60;71.40;;;;;;4964692;28;89677;-49
2023/04/15 07:19:25;;;;;;;92.60;52.10;;;14.60;71.40;;;;;;4956869;28;89884;-47
2023/04/15 07:21:51;;;;;;;93.28;52.30;;;14.60;71.50;;;;;;4954562;28;88770;-50
2023/04/15 07:24:18;;;;;;;92.85;52.05;;;14.60;71.50;;;;;;4960038;28;89754;-46
2023/04/15 07:26:44;;;;;;;93.30;52.40;;;14.60;71.50;;;;;;4958470;28;91658;-49
2023/04/15 07:29:11;;;;;;;92.63;51.95;;;14.60;71.50;;;;;;4962523;28;91019;-45
2023/04/15 07:31:36;;;;;;;92.55;52.15;;;14.60;71.50;;;;;;4958403;28;89877;-46
2023/04/15 07:34:03;;;;;;;93.53;51.78;;;14.60;71.60;;;;;;4956830;28;89838;-45
2023/04/15 07:36:30;;;;;;;92.85;52.35;;;14.60;71.60;;;;;;4957348;28;90310;-50
2023/04/15 07:38:56;;;;;;;93.15;52.10;;;14.60;71.60;;;;;;4953650;28;90142;-49
2023/04/15 07:41:22;;;;;;;91.97;51.72;;;14.60;71.60;;;;;;4957846;28;89684;-46
2023/04/15 07:43:48;;;;;;;92.82;51.92;;;14.60;71.60;;;;;;4958744;28;90302;-52
2023/04/15 07:46:14;;;;;;;92.95;52.10;;;14.60;71.50;;;;;;4952537;28;91347;-46
2023/04/15 07:48:41;;;;;;;92.47;51.92;;;14.60;71.60;;;;;;4955596;28;89799;-46
2023/04/15 07:51:07;;;;;;;92.97;52.17;;;14.60;71.50;;;;;;4955555;28;90530;-47
2023/04/15 07:53:33;;;;;;;93.28;52.15;;;14.60;71.50;;;;;;4964822;28;90722;-49
2023/04/15 07:55:58;;;;;;;92.63;51.88;;;14.70;71.60;;;;;;4959863;28;90630;-47
2023/04/15 07:58:24;;;;;;;92.90;51.95;;;14.70;71.60;;;;;;4965499;28;90455;-45
2023/04/15 08:00:51;;;;;;;92.97;52.25;;;14.60;71.50;;;;;;4962601;28;89696;-47
2023/04/15 08:03:16;;;;;;;93.53;52.15;;;14.70;71.60;;;;;;4957397;28;90186;-45
2023/04/15 08:05:42;;;;;;;94.40;52.03;;;14.70;71.50;;;;;;4959178;28;90079;-48
2023/04/15 08:08:07;;;;;;;92.85;52.00;;;14.60;71.50;;;;;;4963462;28;89910;-48
2023/04/15 08:10:33;;;;;;;92.80;51.85;;;14.60;71.50;;;;;;4959760;28;90016;-48
2023/04/15 08:12:59;;;;;;;93.15;51.90;;;14.70;71.60;;;;;;4961503;28;89786;-47
2023/04/15 08:15:26;;;;;;;93.15;52.13;;;14.70;71.60;;;;;;4960622;28;89958;-47
2023/04/15 08:17:51;;;;;;;93.30;52.47;;;14.70;71.60;;;;;;4961260;28;90502;-47
2023/04/15 08:20:17;;;;;;;93.50;52.05;;;14.70;71.30;;;;;;4958265;28;89676;-46
2023/04/15 08:22:43;;;;;;;94.43;52.63;;;14.70;71.40;;;;;;4958093;28;89993;-46
2023/04/15 08:25:09;;;;;;;96.68;52.42;;;14.70;71.20;;;;;;4950875;28;91233;-48
2023/04/15 08:27:35;;;;;;;92.82;52.03;;;14.70;71.40;;;;;;4958720;28;90348;-49
2023/04/15 08:30:01;;;;;;;93.03;52.10;;;14.70;71.50;;;;;;4957390;28;90290;-51
2023/04/15 08:32:27;;;;;;;93.05;52.20;;;14.70;71.50;;;;;;4954583;28;91275;-50
2023/04/15 08:34:53;;;;;;;93.88;52.63;;;14.70;71.30;;;;;;4953954;28;95122;-46
2023/04/15 08:37:19;;;;;;;93.43;52.55;;;14.70;71.30;;;;;;4959073;28;90028;-48
2023/04/15 08:39:45;;;;;;;94.63;52.28;;;14.70;71.20;;;;;;4952976;28;89847;-50
2023/04/15 08:42:16;;;;;;;93.28;51.85;;;14.70;71.00;;;;;;4954248;28;92521;-51
2023/04/15 08:44:43;;;;;;;93.03;52.13;;;14.70;71.30;;;;;;4955294;28;90738;-52
2023/04/15 08:47:13;;;;;;;93.75;52.45;;;14.80;71.50;;;;;;4952631;28;90248;-48
2023/04/15 08:49:40;;;;;;;93.22;52.25;;;14.80;71.20;;;;;;4955421;28;89547;-54
2023/04/15 08:52:07;;;;;;;94.40;52.28;;;14.80;71.50;;;;;;4956310;28;90244;-49
2023/04/15 08:54:35;;;;;;;94.38;52.15;;;14.80;71.40;;;;;;4955660;28;90297;-66
2023/04/15 08:57:03;;;;;;;97.25;52.10;;;14.80;71.70;;;;;;4959922;28;89848;-56
2023/04/15 08:59:30;;;;;;;95.53;52.10;;;14.90;71.90;;;;;;4956765;28;89682;-59
2023/04/15 09:01:57;;;;;;;95.75;52.47;;;14.90;71.90;;;;;;4955013;28;91270;-58
2023/04/15 09:04:23;;;;;;;94.05;52.25;;;14.90;71.80;;;;;;4975604;28;90781;-57
2023/04/15 09:06:48;;;;;;;97.88;52.78;;;14.90;71.90;;;;;;4953353;28;92809;-58
2023/04/15 09:09:14;;;;;;;95.47;52.72;;;14.90;71.90;;;;;;4960826;28;90100;-58
2023/04/15 09:11:41;;;;;;;94.75;52.13;;;14.90;71.80;;;;;;4960292;28;94098;-58
2023/04/15 09:14:07;;;;;;;95.57;52.35;;;14.90;72.00;;;;;;4959969;28;90439;-58
2023/04/15 09:16:59;;;;;;;95.07;52.75;;;14.90;72.10;;;;;;4959816;28;89882;-56
2023/04/15 09:19:26;;;;;;;95.53;52.45;;;14.90;72.00;;;;;;4956805;28;91918;-59
2023/04/15 09:21:55;;;;;;;95.88;52.45;;;14.90;71.60;;;;;;4961134;28;89724;-57
2023/04/15 09:24:22;;;;;;;96.07;52.67;;;14.90;71.70;;;;;;4955911;28;89670;-58
2023/04/15 09:26:52;;;;;;;95.60;52.83;;;15.00;71.60;;;;;;4958931;28;89884;-56
2023/04/15 09:29:18;;;;;;;97.25;53.15;;;15.00;72.40;;;;;;4958805;28;89576;-59
2023/04/15 09:31:44;;;;;;;95.97;52.95;;;15.00;71.60;;;;;;4956173;28;91349;-58
2023/04/15 09:34:10;;;;;;;94.68;52.45;;;15.00;71.70;;;;;;4956823;28;90749;-58
2023/04/15 09:36:53;;;;;;;95.57;52.95;;;15.00;71.50;;;;;;4955702;28;89070;-59
2023/04/15 09:39:20;;;;;;;95.70;53.22;;;15.00;71.70;;;;;;4963287;28;90635;-58
2023/04/15 09:41:46;;;;;;;95.90;52.70;;;15.00;71.40;;;;;;4954259;28;90193;-58
2023/04/15 09:44:25;;;;;;;96.18;53.05;;;15.00;71.80;;;;;;4959342;28;90493;-59
2023/04/15 09:46:51;;;;;;;96.05;52.90;;;15.00;71.60;;;;;;4956311;28;90224;-58
2023/04/15 09:49:17;;;;;;;95.78;52.95;;;15.10;71.80;;;;;;4959891;28;89008;-59
2023/04/15 09:51:43;;;;;;;95.35;52.60;;;15.10;71.50;;;;;;4959153;28;89424;-59
2023/04/15 09:54:09;;;;;;;97.25;53.00;;;15.10;71.80;;;;;;4959322;28;91953;-58
2023/04/15 09:56:41;;;;;;;97.78;53.50;;;15.10;71.70;;;;;;4958023;28;90282;-58
2023/04/15 09:59:10;;;;;;;97.10;53.10;;;15.10;71.20;;;;;;4953220;28;89509;-56
2023/04/15 10:01:35;;;;;;;96.55;53.67;;;15.10;71.70;;;;;;4953035;28;92327;-59
2023/04/15 10:04:03;;;;;;;96.70;53.38;;;15.10;71.50;;;;;;4957612;28;90606;-58
2023/04/15 10:06:29;;;;;;;95.10;52.83;;;15.20;71.50;;;;;;4955235;28;89607;-59
2023/04/15 10:08:56;;;;;;;95.30;52.92;;;15.20;71.70;;;;;;4957402;28;90076;-58
2023/04/15 10:11:23;;;;;;;96.38;52.88;;;15.20;71.60;;;;;;4954988;28;91482;-59
2023/04/15 10:13:50;;;;;;;95.78;52.53;;;15.20;71.80;;;;;;4957951;28;88933;-59
2023/04/15 10:16:18;;;;;;;107.05;54.72;;;15.20;71.80;;;;;;4950499;28;89932;-57
2023/04/15 10:18:46;;;;;;;103.50;54.78;;;15.20;72.60;;;;;;4949966;28;89641;-59
2023/04/15 10:21:17;;;;;;;102.63;54.50;;;15.20;73.00;;;;;;4951847;28;90788;-62
2023/04/15 10:23:44;;;;;;;101.30;54.00;;;15.30;73.10;;;;;;4954487;28;94091;-60
2023/04/15 10:26:13;;;;;;;104.50;54.47;;;15.30;73.40;;;;;;4950318;28;90464;-59
2023/04/15 10:28:39;;;;;;;104.63;54.70;;;15.40;73.40;;;;;;4950187;28;91929;-59
2023/04/15 10:31:06;;;;;;;102.43;54.50;;;15.40;73.20;;;;;;4953194;28;90463;-52
2023/04/15 10:33:33;;;;;;;104.15;54.65;;;15.40;73.30;;;;;;4943836;28;89559;-60
2023/04/15 10:36:00;;;;;;;103.15;53.53;;;15.40;73.50;;;;;;4956030;28;89314;-61
2023/04/15 10:38:37;;;;;;;100.35;54.22;;;15.40;73.50;;;;;;4952371;28;88987;-59
2023/04/15 10:41:16;;;;;;;102.93;54.40;;;15.40;73.50;;;;;;4946032;28;89848;-55
2023/04/15 10:43:52;;;;;;;107.68;54.83;;;15.40;73.40;;;;;;4950648;28;89749;-60
2023/04/15 10:46:22;;;;;;;103.10;54.53;;;15.50;73.60;;;;;;4958616;28;90830;-59
2023/04/15 10:48:50;;;;;;;107.70;54.72;;;15.50;74.00;;;;;;4947701;28;89345;-59
2023/04/15 10:51:16;;;;;;;106.88;54.75;;;15.50;74.20;;;;;;4966946;28;90174;-58
2023/04/15 10:53:42;;;;;;;104.65;54.75;;;15.50;74.30;;;;;;4949961;28;90369;-49
2023/04/15 10:56:09;;;;;;;107.20;55.38;;;15.50;74.30;;;;;;4949181;28;94517;-56
2023/04/15 10:58:42;;;;;;;105.55;55.45;;;15.60;74.60;;;;;;4960254;28;89408;-59
2023/04/15 11:01:08;;;;;;;105.38;55.05;;;15.60;74.90;;;;;;4952370;28;89584;-61
2023/04/15 11:03:38;;;;;;;105.60;54.55;;;15.70;75.10;;;;;;4958842;28;90516;-68
2023/04/15 11:06:06;;;;;;;106.47;55.40;;;15.70;75.00;;;;;;4962446;28;89411;-55
2023/04/15 11:08:58;;;;;;;103.88;54.95;;;15.70;75.90;;;;;;4948239;28;92686;-57
2023/04/15 11:12:01;;;;;;;104.07;54.83;;;15.60;75.20;;;;;;4949406;28;90575;-50
2023/04/15 11:14:27;;;;;;;108.97;55.33;;;15.70;74.80;;;;;;4946059;28;90827;-61
2023/04/15 11:16:52;;;;;;;106.78;55.00;;;15.70;74.70;;;;;;4954466;28;94221;-63
2023/04/15 11:19:18;;;;;;;107.75;55.38;;;15.70;75.00;;;;;;4949033;28;90210;-61
2023/04/15 11:21:44;;;;;;;105.57;55.75;;;15.80;75.10;;;;;;4954223;28;90047;-65
2023/04/15 11:24:09;;;;;;;102.10;54.05;;;15.80;75.00;;;;;;4957845;28;89071;-60
2023/04/15 11:26:35;;;;;;;108.90;54.83;;;15.70;75.00;;;;;;4961010;28;90146;-57
2023/04/15 11:29:01;;;;;;;104.90;55.40;;;15.70;75.10;;;;;;4951734;28;89691;-61
2023/04/15 11:31:27;;;;;;;103.68;55.03;;;15.70;75.00;;;;;;4947148;28;89992;-63
2023/04/15 11:34:01;;;;;;;103.93;54.67;;;15.70;75.00;;;;;;4951251;28;90304;-65
2023/04/15 11:36:28;;;;;;;103.20;55.03;;;15.70;74.90;;;;;;4950389;28;90716;-66
2023/04/15 11:38:54;;;;;;;108.03;55.78;;;15.70;75.00;;;;;;4957964;28;89485;-65
2023/04/15 11:41:21;;;;;;;103.47;55.10;;;15.70;74.80;;;;;;4954737;28;90985;-66
2023/04/15 11:43:47;;;;;;;106.22;55.35;;;15.70;74.70;;;;;;4955118;28;92009;-65
2023/04/15 11:46:13;;;;;;;103.05;55.05;;;15.70;74.60;;;;;;4951429;28;91138;-65
2023/04/15 11:48:43;;;;;;;102.50;55.33;;;15.80;74.80;;;;;;4956385;28;89109;-57
2023/04/15 11:51:09;;;;;;;102.95;55.63;;;15.80;75.50;;;;;;4944053;28;89938;-64
2023/04/15 11:53:42;;;;;;;105.07;56.22;;;15.80;74.60;;;;;;4951249;28;89187;-65
2023/04/15 11:56:10;;;;;;;106.05;55.63;;;15.80;74.40;;;;;;4944273;28;90408;-66
2023/04/15 11:58:37;;;;;;;105.80;55.65;;;15.80;74.40;;;;;;4954846;28;90033;-63
2023/04/15 12:01:03;;;;;;;104.22;55.67;;;15.80;74.30;;;;;;4957710;28;91362;-66
2023/04/15 12:03:44;;;;;;;105.82;55.78;;;15.80;74.40;;;;;;4959034;28;92351;-60
2023/04/15 12:06:16;;;;;;;105.00;56.05;;;15.80;74.30;;;;;;4955667;28;89630;-65
2023/04/15 12:08:54;;;;;;;107.93;56.20;;;15.80;74.20;;;;;;4955190;28;91899;-63
2023/04/15 12:11:31;;;;;;;105.55;55.85;;;15.90;74.10;;;;;;4956415;28;90092;-64
2023/04/15 12:14:04;;;;;;;102.75;55.67;;;15.90;73.80;;;;;;4953968;28;90108;-64
2023/04/15 12:16:30;;;;;;;105.47;55.67;;;15.90;73.70;;;;;;4963329;28;93548;-57
2023/04/15 12:18:58;;;;;;;111.47;56.03;;;15.90;73.40;;;;;;4955886;28;88465;-57
2023/04/15 12:21:33;;;;;;;107.65;55.97;;;15.90;73.40;;;;;;4958246;28;89285;-61
2023/04/15 12:24:02;;;;;;;111.88;56.17;;;15.90;73.30;;;;;;4953807;28;89043;-60